Time;durP1;ratioP1;P1;durP2;ratioP2;P2;SDS_P1;SDS_P2;PMS_P1;PMS_P2;Temp;Humidity;BMP_temperature;BMP_pressure;BME280_temperature;BME280_humidity;BME280_pressure;Samples;Min_cycle;Max_cycle;Signal;HPM_P1;HPM_P2
2021/08/12 00:00:01;;;;;;;2.67;1.20;;;;;;;13.09;100.00;99920.38;4975616;28;20666;-74
2021/08/12 00:03:04;;;;;;;0.82;0.40;;;;;;;12.90;100.00;99914.31;4976380;28;20061;-74
2021/08/12 00:06:07;;;;;;;0.20;0.20;;;;;;;12.72;100.00;99911.00;4974213;28;20049;-74
2021/08/12 00:09:11;;;;;;;6.57;0.50;;;;;;;12.55;100.00;99915.59;4974807;28;20049;-74
2021/08/12 00:12:14;;;;;;;1.35;0.35;;;;;;;12.39;100.00;99916.16;4967985;28;20174;-74
2021/08/12 00:15:17;;;;;;;11.27;0.63;;;;;;;12.22;100.00;99907.53;4971528;28;20752;-74
2021/08/12 00:18:20;;;;;;;0.68;0.45;;;;;;;12.10;100.00;99908.63;4973355;28;20121;-74
2021/08/12 00:21:24;;;;;;;0.38;0.20;;;;;;;12.02;100.00;99907.47;4973275;28;20081;-74
2021/08/12 00:24:27;;;;;;;2.47;0.75;;;;;;;11.93;100.00;99913.19;4973562;28;20861;-74
2021/08/12 00:27:30;;;;;;;0.20;0.10;;;;;;;11.85;100.00;99920.38;4974085;28;20115;-74
2021/08/12 00:30:34;;;;;;;1.70;0.30;;;;;;;11.76;100.00;99918.47;4974796;28;20052;-74
2021/08/12 00:33:37;;;;;;;4.28;0.20;;;;;;;11.67;100.00;99915.03;4974317;28;20160;-73
2021/08/12 00:36:40;;;;;;;6.25;1.05;;;;;;;11.64;100.00;99913.94;4973337;28;20196;-73
2021/08/12 00:39:43;;;;;;;2.33;0.55;;;;;;;11.55;100.00;99919.59;4966297;28;20124;-74
2021/08/12 00:42:46;;;;;;;1.70;0.20;;;;;;;11.45;100.00;99920.97;4965871;28;20561;-74
2021/08/12 00:45:50;;;;;;;0.47;0.28;;;;;;;11.38;100.00;99929.69;4966249;28;20138;-74
2021/08/12 00:48:53;;;;;;;1.65;0.35;;;;;;;11.34;100.00;99929.13;4966371;28;20510;-74
2021/08/12 00:51:56;;;;;;;0.85;0.57;;;;;;;11.30;100.00;99936.91;4967298;28;20111;-74
2021/08/12 00:55:04;;;;;;;0.85;0.22;;;;;;;11.24;100.00;99928.41;4967628;28;20065;-73
2021/08/12 00:58:07;;;;;;;0.30;0.28;;;;;;;11.15;100.00;99930.53;4973055;28;20101;-73
2021/08/12 01:01:11;;;;;;;1.40;0.30;;;;;;;11.08;100.00;99930.91;4968096;28;20092;-73
2021/08/12 01:04:14;;;;;;;0.20;0.20;;;;;;;11.00;100.00;99932.53;4973864;28;20151;-74
2021/08/12 01:07:17;;;;;;;0.95;0.28;;;;;;;10.92;100.00;99932.09;4972249;28;20057;-74
2021/08/12 01:10:38;;;;;;;4.78;0.65;;;;;;;10.85;100.00;99937.28;4970314;28;20064;-73
2021/08/12 01:14:13;;;;;;;0.32;0.20;;;;;;;10.72;100.00;99936.75;4971859;28;20060;-74
2021/08/12 01:17:25;;;;;;;1.33;0.47;;;;;;;10.63;100.00;99935.53;4969638;28;20137;-74
2021/08/12 01:20:50;;;;;;;1.58;0.30;;;;;;;10.54;100.00;99938.41;4972499;28;20057;-73
2021/08/12 01:23:58;;;;;;;0.30;0.30;;;;;;;10.47;100.00;99924.81;4972247;28;20645;-73
2021/08/12 01:27:06;;;;;;;0.98;0.25;;;;;;;10.35;100.00;99919.50;4967287;28;20053;-74
2021/08/12 01:30:14;;;;;;;0.90;0.38;;;;;;;10.26;100.00;99909.19;4967715;28;20777;-73
2021/08/12 01:33:52;;;;;;;1.75;0.95;;;;;;;10.23;100.00;99918.47;4972235;28;20131;-74
2021/08/12 01:36:57;;;;;;;1.40;0.57;;;;;;;10.18;100.00;99916.31;4972256;28;20081;-73
2021/08/12 01:40:03;;;;;;;0.75;0.70;;;;;;;10.15;100.00;99911.72;4973731;28;20623;-73
2021/08/12 01:43:10;;;;;;;4.65;0.47;;;;;;;10.14;100.00;99912.94;4971923;28;20053;-73
2021/08/12 01:46:15;;;;;;;1.75;1.00;;;;;;;10.06;100.00;99925.63;4972729;28;20089;-74
2021/08/12 01:49:19;;;;;;;3.70;0.65;;;;;;;10.08;100.00;99923.13;4973504;28;20053;-74
2021/08/12 01:52:23;;;;;;;2.67;0.52;;;;;;;10.03;100.00;99921.00;4976372;28;20127;-73
2021/08/12 01:55:31;;;;;;;1.10;0.25;;;;;;;10.01;100.00;99923.47;4976067;28;20052;-73
2021/08/12 01:58:35;;;;;;;0.60;0.22;;;;;;;10.00;100.00;99921.94;4978298;28;20052;-74
2021/08/12 02:01:39;;;;;;;0.57;0.28;;;;;;;10.00;100.00;99910.81;4976192;28;20546;-73
2021/08/12 02:04:43;;;;;;;0.50;0.40;;;;;;;10.01;100.00;99912.34;4976468;28;20053;-73
2021/08/12 02:07:47;;;;;;;1.67;0.60;;;;;;;10.06;100.00;99910.94;4975245;28;20104;-74
2021/08/12 02:10:51;;;;;;;18.10;0.77;;;;;;;9.97;100.00;99917.31;4971380;28;20049;-72
2021/08/12 02:13:55;;;;;;;4.25;0.63;;;;;;;9.91;100.00;99924.75;4977008;28;20156;-72
2021/08/12 02:16:58;;;;;;;0.30;0.30;;;;;;;9.84;100.00;99928.66;4969280;28;20052;-73
2021/08/12 02:20:05;;;;;;;1.90;0.43;;;;;;;9.75;100.00;99914.75;4976221;28;20111;-72
2021/08/12 02:23:14;;;;;;;1.90;0.47;;;;;;;9.63;100.00;99906.63;4971134;28;20056;-72
2021/08/12 02:26:19;;;;;;;0.57;0.57;;;;;;;9.56;100.00;99899.38;4975337;28;20060;-72
2021/08/12 02:29:22;;;;;;;0.65;0.10;;;;;;;9.48;100.00;99914.06;4975010;28;20076;-72
2021/08/12 02:32:30;;;;;;;0.50;0.20;;;;;;;9.42;100.00;99915.94;4975136;28;20053;-73
2021/08/12 02:35:36;;;;;;;0.20;0.20;;;;;;;9.25;100.00;99918.25;4975376;28;20061;-72
2021/08/12 02:38:44;;;;;;;0.40;0.40;;;;;;;9.09;100.00;99915.81;4975250;28;20937;-72
2021/08/12 02:41:47;;;;;;;13.38;1.15;;;;;;;8.96;100.00;99921.53;4968441;28;20129;-72
2021/08/12 02:44:53;;;;;;;1.80;0.88;;;;;;;8.85;100.00;99929.56;4975624;28;20057;-72
2021/08/12 02:47:59;;;;;;;0.40;0.40;;;;;;;8.79;100.00;99919.53;4968740;28;20053;-73
2021/08/12 02:51:04;;;;;;;2.20;0.50;;;;;;;8.78;100.00;99920.75;4968386;28;20151;-73
2021/08/12 02:54:08;;;;;;;0.32;0.32;;;;;;;8.78;100.00;99915.97;4973793;28;20060;-72
2021/08/12 02:57:13;;;;;;;4.10;0.60;;;;;;;8.74;100.00;99923.69;4974575;28;20077;-72
2021/08/12 03:00:16;;;;;;;2.17;0.63;;;;;;;8.76;100.00;99931.53;4974493;28;20124;-72
2021/08/12 03:03:21;;;;;;;0.30;0.30;;;;;;;8.73;100.00;99933.22;4975110;28;20078;-72
2021/08/12 03:06:25;;;;;;;0.50;0.20;;;;;;;8.67;100.00;99929.53;4974507;28;20061;-72
2021/08/12 03:09:29;;;;;;;2.97;0.40;;;;;;;8.64;100.00;99922.09;4975227;28;20060;-73
2021/08/12 03:12:33;;;;;;;0.70;0.60;;;;;;;8.58;100.00;99920.41;4974984;28;20727;-72
2021/08/12 03:15:38;;;;;;;1.23;0.50;;;;;;;8.57;100.00;99921.66;4974035;28;20084;-72
2021/08/12 03:18:41;;;;;;;0.57;0.38;;;;;;;8.54;100.00;99919.78;4973635;28;20061;-73
2021/08/12 03:22:05;;;;;;;1.05;0.40;;;;;;;8.50;100.00;99936.59;4974685;28;20131;-72
2021/08/12 03:25:10;;;;;;;2.80;0.70;;;;;;;8.50;100.00;99936.59;4970299;28;20100;-72
2021/08/12 03:28:12;;;;;;;2.60;0.57;;;;;;;8.48;100.00;99935.50;4971107;28;20686;-72
2021/08/12 03:31:16;;;;;;;1.40;0.28;;;;;;;8.45;100.00;99937.19;4973780;28;20061;-72
2021/08/12 03:34:19;;;;;;;2.30;0.93;;;;;;;8.41;100.00;99936.56;4970711;28;20958;-72
2021/08/12 03:37:22;;;;;;;0.43;0.43;;;;;;;8.33;100.00;99927.78;4974206;28;20563;-72
2021/08/12 03:40:25;;;;;;;0.40;0.40;;;;;;;8.32;100.00;99931.75;4974504;28;20112;-72
2021/08/12 03:43:29;;;;;;;1.30;0.70;;;;;;;8.33;100.00;99938.09;4973680;28;20060;-72
2021/08/12 03:46:32;;;;;;;0.52;0.30;;;;;;;8.30;100.00;99941.78;4973812;28;20076;-73
2021/08/12 03:49:35;;;;;;;2.65;0.95;;;;;;;8.26;100.00;99932.81;4973886;28;20060;-73
2021/08/12 03:52:38;;;;;;;0.30;0.30;;;;;;;8.19;100.00;99935.84;4973513;28;20089;-73
2021/08/12 03:55:41;;;;;;;0.60;0.43;;;;;;;8.13;100.00;99930.13;4973811;28;20057;-73
2021/08/12 03:58:44;;;;;;;11.13;0.57;;;;;;;8.16;100.00;99922.91;4974043;28;20203;-72
2021/08/12 04:01:48;;;;;;;0.77;0.30;;;;;;;8.19;100.00;99921.97;4973716;28;20056;-72
2021/08/12 04:04:51;;;;;;;0.20;0.10;;;;;;;8.23;100.00;99925.38;4973960;28;20139;-72
2021/08/12 04:07:54;;;;;;;0.35;0.30;;;;;;;8.22;100.00;99926.63;4973181;28;20131;-72
2021/08/12 04:10:57;;;;;;;0.13;0.13;;;;;;;8.16;100.00;99936.78;4968466;28;20056;-72
2021/08/12 04:14:00;;;;;;;0.75;0.65;;;;;;;8.16;100.00;99934.78;4973470;28;20096;-72
2021/08/12 04:17:04;;;;;;;0.60;0.50;;;;;;;8.10;100.00;99938.63;4974376;28;20069;-72
2021/08/12 04:20:07;;;;;;;2.97;0.20;;;;;;;8.03;100.00;99936.13;4973789;28;20111;-71
2021/08/12 04:23:10;;;;;;;2.42;0.30;;;;;;;8.02;100.00;99929.00;4974324;28;20053;-74
2021/08/12 04:26:13;;;;;;;4.88;0.20;;;;;;;8.08;100.00;99932.72;4972951;28;20052;-72
2021/08/12 04:29:17;;;;;;;2.63;0.55;;;;;;;8.03;100.00;99936.13;4970325;28;20053;-72
2021/08/12 04:32:20;;;;;;;4.03;0.30;;;;;;;8.04;100.00;99948.72;4973196;28;20057;-73
2021/08/12 04:35:23;;;;;;;0.77;0.50;;;;;;;7.97;100.00;99946.25;4972988;28;20674;-71
2021/08/12 04:38:26;;;;;;;2.97;0.65;;;;;;;7.91;100.00;99946.06;4972729;28;21222;-71
2021/08/12 04:41:29;;;;;;;0.32;0.25;;;;;;;7.79;100.00;99937.84;4973576;28;20053;-71
2021/08/12 04:44:32;;;;;;;0.20;0.20;;;;;;;7.82;100.00;99932.16;4974049;28;20147;-72
2021/08/12 04:47:36;;;;;;;0.85;0.52;;;;;;;7.94;100.00;99930.53;4973491;28;20118;-72
2021/08/12 04:50:40;;;;;;;1.27;0.32;;;;;;;7.89;100.00;99942.97;4969228;28;20053;-71
2021/08/12 04:53:43;;;;;;;1.13;0.40;;;;;;;7.87;100.00;99950.97;4959677;28;21154;-71
2021/08/12 04:56:47;;;;;;;1.45;0.52;;;;;;;7.92;100.00;99952.38;4967837;28;20061;-73
2021/08/12 04:59:50;;;;;;;0.55;0.20;;;;;;;7.86;100.00;99951.44;4956527;28;20201;-72
2021/08/12 05:02:53;;;;;;;0.40;0.38;;;;;;;7.84;100.00;99945.59;4966955;28;20056;-72
2021/08/12 05:06:04;;;;;;;3.50;0.50;;;;;;;7.86;100.00;99951.44;4967458;28;20776;-72
2021/08/12 05:09:07;;;;;;;4.40;0.63;;;;;;;7.89;100.00;99950.50;4968443;28;20125;-72
2021/08/12 05:12:10;;;;;;;2.53;0.65;;;;;;;7.88;100.00;99962.84;4968847;28;20168;-73
2021/08/12 05:15:13;;;;;;;2.55;0.93;;;;;;;7.91;100.00;99961.91;4971026;28;20302;-72
2021/08/12 05:18:16;;;;;;;0.98;0.55;;;;;;;7.93;100.00;99965.00;4973368;28;20077;-71
2021/08/12 05:21:19;;;;;;;0.17;0.17;;;;;;;7.88;100.00;99965.63;4972576;28;20052;-72
2021/08/12 05:24:22;;;;;;;4.25;0.43;;;;;;;7.86;100.00;99970.84;4977012;28;20053;-73
2021/08/12 05:27:25;;;;;;;0.40;0.38;;;;;;;7.87;100.00;99973.16;4978024;28;21034;-73
2021/08/12 05:30:28;;;;;;;0.20;0.20;;;;;;;7.92;100.00;99969.03;4978118;28;20611;-72
2021/08/12 05:33:34;;;;;;;0.85;0.80;;;;;;;8.00;100.00;99970.28;4976561;28;20115;-73
2021/08/12 05:36:37;;;;;;;0.10;0.10;;;;;;;8.01;100.00;99960.75;4969370;28;20065;-72
2021/08/12 05:39:40;;;;;;;0.30;0.28;;;;;;;8.02;100.00;99978.94;4976031;28;20056;-72
2021/08/12 05:42:43;;;;;;;0.98;0.47;;;;;;;8.02;100.00;99970.59;4975972;28;21212;-72
2021/08/12 05:45:46;;;;;;;5.63;0.50;;;;;;;8.05;100.00;99976.03;4977020;28;20056;-73
2021/08/12 05:48:49;;;;;;;0.77;0.32;;;;;;;8.10;100.00;99971.91;4976089;28;20056;-73
2021/08/12 05:51:53;;;;;;;12.10;0.60;;;;;;;8.15;100.00;99965.72;4976305;28;20053;-73
2021/08/12 05:54:56;;;;;;;3.92;0.43;;;;;;;8.17;100.00;99972.38;4975695;28;20057;-73
2021/08/12 05:57:59;;;;;;;2.13;0.40;;;;;;;8.24;100.00;99976.88;4974126;28;20107;-73
2021/08/12 06:01:04;;;;;;;1.50;0.70;;;;;;;8.31;100.00;99968.31;4971206;28;20152;-73
2021/08/12 06:04:07;;;;;;;6.07;1.65;;;;;;;8.37;100.00;99978.34;4963404;28;20147;-72
2021/08/12 06:07:10;;;;;;;4.78;0.90;;;;;;;8.42;100.00;99974.19;4975405;28;20092;-72
2021/08/12 06:10:14;;;;;;;5.80;1.15;;;;;;;8.52;100.00;99970.22;4966876;28;20105;-72
2021/08/12 06:13:17;;;;;;;0.93;0.73;;;;;;;8.56;100.00;99968.06;4965768;28;20601;-73
2021/08/12 06:16:21;;;;;;;6.22;1.50;;;;;;;8.64;100.00;99960.97;4966182;28;20845;-73
2021/08/12 06:19:24;;;;;;;2.00;0.98;;;;;;;8.75;100.00;99958.53;4966325;28;20558;-73
2021/08/12 06:22:27;;;;;;;6.25;0.93;;;;;;;8.86;100.00;99960.84;4957174;28;20108;-72
2021/08/12 06:25:30;;;;;;;1.23;0.65;;;;;;;8.95;100.00;99961.66;4963652;28;20113;-73
2021/08/12 06:28:33;;;;;;;2.22;1.17;;;;;;;9.11;100.00;99966.13;4965940;28;20061;-72
2021/08/12 06:31:38;;;;;;;0.77;0.40;;;;;;;9.18;100.00;99963.06;4966453;28;20069;-73
2021/08/12 06:34:41;;;;;;;5.03;2.03;;;;;;;9.33;100.00;99968.75;4969557;28;20116;-71
2021/08/12 06:37:46;;;;;;;2.28;1.27;;;;;;;9.49;100.00;99955.28;4969696;28;20081;-72
2021/08/12 06:40:49;;;;;;;4.07;1.15;;;;;;;9.62;100.00;99960.66;4970694;28;21219;-73
2021/08/12 06:43:52;;;;;;;12.80;1.30;;;;;;;9.69;100.00;99965.91;4956627;28;20809;-73
2021/08/12 06:46:55;;;;;;;1.23;0.55;;;;;;;9.82;100.00;99964.50;4958254;28;20076;-73
2021/08/12 06:49:58;;;;;;;1.50;0.47;;;;;;;9.99;100.00;99964.13;4956443;28;20108;-73
2021/08/12 06:53:02;;;;;;;1.58;0.73;;;;;;;10.14;100.00;99957.47;4968341;28;21141;-73
2021/08/12 06:56:05;;;;;;;0.60;0.20;;;;;;;10.29;100.00;99958.31;4971894;28;20060;-73
2021/08/12 06:59:08;;;;;;;3.13;0.93;;;;;;;10.41;100.00;99957.34;4972852;28;20956;-73
2021/08/12 07:02:11;;;;;;;5.72;1.27;;;;;;;10.55;100.00;99964.22;4972097;28;20049;-73
2021/08/12 07:05:15;;;;;;;1.05;0.73;;;;;;;10.70;100.00;99950.38;4975589;28;20116;-73
2021/08/12 07:08:18;;;;;;;1.25;1.05;;;;;;;10.82;100.00;99952.16;4976306;28;20733;-74
2021/08/12 07:11:21;;;;;;;3.13;0.57;;;;;;;10.93;100.00;99957.94;4979546;28;20834;-73
2021/08/12 07:14:24;;;;;;;3.72;0.88;;;;;;;11.06;100.00;99955.69;4979732;28;20053;-73
2021/08/12 07:17:28;;;;;;;5.35;0.50;;;;;;;11.15;100.00;99952.84;5012821;28;20057;-73
2021/08/12 07:20:35;;;;;;;1.58;0.52;;;;;;;11.26;100.00;99948.22;5011941;28;20534;-75
2021/08/12 07:23:38;;;;;;;6.82;0.65;;;;;;;11.34;100.00;99945.84;5009074;28;20068;-76
2021/08/12 07:26:42;;;;;;;4.25;0.43;;;;;;;11.38;100.00;99936.06;4980407;28;20710;-77
2021/08/12 07:29:46;;;;;;;0.10;0.10;;;;;;;11.48;100.00;99944.34;4976185;28;20145;-76
2021/08/12 07:32:49;;;;;;;6.40;0.93;;;;;;;11.58;100.00;99943.75;4976946;28;20920;-76
2021/08/12 07:35:52;;;;;;;1.48;0.63;;;;;;;11.66;100.00;99950.50;4975429;28;20142;-76
2021/08/12 07:38:55;;;;;;;3.92;1.02;;;;;;;11.75;100.00;99939.28;4970259;28;20053;-77
2021/08/12 07:41:59;;;;;;;1.80;0.65;;;;;;;11.83;100.00;99948.78;4975634;28;20120;-75
2021/08/12 07:45:03;;;;;;;1.13;0.50;;;;;;;11.87;100.00;99952.16;4970543;28;20120;-74
2021/08/12 07:48:06;;;;;;;6.32;0.80;;;;;;;11.99;100.00;99953.88;4975779;28;21170;-76
2021/08/12 07:51:09;;;;;;;1.05;0.40;;;;;;;12.17;100.00;99962.03;4975963;28;20127;-75
2021/08/12 07:54:12;;;;;;;4.38;0.68;;;;;;;12.15;100.00;99972.91;4975926;28;20158;-76
2021/08/12 07:57:16;;;;;;;1.02;0.32;;;;;;;12.21;100.00;99958.28;4975390;28;20088;-73
2021/08/12 08:00:19;;;;;;;1.17;0.45;;;;;;;12.41;100.00;99958.34;4975098;28;20111;-73
2021/08/12 08:03:22;;;;;;;2.28;0.68;;;;;;;12.52;100.00;99961.25;4976250;28;20128;-75
2021/08/12 08:06:25;;;;;;;1.30;0.70;;;;;;;12.56;100.00;99978.63;4979928;28;20131;-73
2021/08/12 08:09:28;;;;;;;9.43;0.63;;;;;;;12.68;100.00;99969.13;4979643;28;20133;-73
2021/08/12 08:12:31;;;;;;;0.65;0.20;;;;;;;12.75;100.00;99965.94;4978755;28;20119;-72
2021/08/12 08:15:35;;;;;;;1.90;0.90;;;;;;;12.88;100.00;99966.34;4978756;28;20057;-73
2021/08/12 08:18:38;;;;;;;0.35;0.35;;;;;;;12.87;100.00;99964.81;4978570;28;20072;-73
2021/08/12 08:21:41;;;;;;;1.27;0.70;;;;;;;12.91;100.00;99973.75;4977358;28;20057;-73
2021/08/12 08:24:44;;;;;;;5.22;1.27;;;;;;;13.05;100.00;99977.78;4977346;28;20076;-72
2021/08/12 08:27:49;;;;;;;1.95;0.60;;;;;;;13.15;100.00;99979.94;4970054;28;20053;-72
2021/08/12 08:30:52;;;;;;;1.67;0.50;;;;;;;13.27;100.00;99981.63;4977682;28;20112;-72
2021/08/12 08:33:57;;;;;;;0.63;0.32;;;;;;;13.41;100.00;99980.75;4977546;28;20115;-73
2021/08/12 08:37:00;;;;;;;8.75;1.10;;;;;;;13.48;100.00;99977.53;4977985;28;20140;-72
2021/08/12 08:40:03;;;;;;;1.50;0.63;;;;;;;13.54;100.00;99986.75;4979308;28;20533;-72
2021/08/12 08:43:08;;;;;;;1.65;0.63;;;;;;;13.63;100.00;99980.22;4972856;28;20120;-72
2021/08/12 08:46:13;;;;;;;2.08;0.45;;;;;;;13.76;100.00;99979.81;4974075;28;20104;-72
2021/08/12 08:49:19;;;;;;;1.42;0.43;;;;;;;13.81;100.00;99977.09;4973679;28;21071;-72
2021/08/12 08:52:23;;;;;;;0.80;0.40;;;;;;;14.01;100.00;99976.25;4978048;28;20107;-72
2021/08/12 08:55:27;;;;;;;3.30;0.57;;;;;;;14.13;100.00;99972.28;4978215;28;20208;-72
2021/08/12 08:58:30;;;;;;;0.47;0.30;;;;;;;14.41;100.00;99970.47;4978787;28;20922;-72
2021/08/12 09:01:36;;;;;;;1.10;0.43;;;;;;;14.50;100.00;99961.88;4969540;28;20057;-71
2021/08/12 09:04:40;;;;;;;4.00;1.00;;;;;;;14.48;100.00;99958.81;4976554;28;20141;-72
2021/08/12 09:07:44;;;;;;;0.47;0.32;;;;;;;14.54;100.00;99956.03;4966922;28;20080;-72
2021/08/12 09:10:48;;;;;;;3.83;0.40;;;;;;;14.65;100.00;99942.88;4966151;28;20069;-72
2021/08/12 09:13:55;;;;;;;1.20;0.43;;;;;;;14.79;100.00;99949.56;4968576;28;20978;-73
2021/08/12 09:17:20;;;;;;;2.28;0.85;;;;;;;14.94;100.00;99947.34;4970869;28;20056;-72
2021/08/12 09:20:24;;;;;;;1.38;0.45;;;;;;;15.15;100.00;99943.84;4970045;28;20077;-72
2021/08/12 09:23:29;;;;;;;0.93;0.30;;;;;;;15.35;100.00;99940.09;4963927;28;20057;-71
2021/08/12 09:26:40;;;;;;;0.45;0.15;;;;;;;15.49;100.00;99941.16;4972167;28;20306;-73
2021/08/12 09:29:43;;;;;;;1.40;0.40;;;;;;;15.66;100.00;99941.94;4953502;28;20077;-72
2021/08/12 09:32:48;;;;;;;3.30;0.20;;;;;;;15.73;100.00;99925.38;4956595;28;20084;-72
2021/08/12 09:35:53;;;;;;;3.40;0.20;;;;;;;15.94;100.00;99929.47;4961481;28;21250;-72
2021/08/12 09:39:22;;;;;;;3.47;0.20;;;;;;;15.94;100.00;99918.22;4961441;28;20057;-71
2021/08/12 09:42:25;;;;;;;1.10;0.52;;;;;;;15.99;100.00;99922.31;4960838;28;20058;-71
2021/08/12 09:45:30;;;;;;;0.77;0.10;;;;;;;16.06;100.00;99921.81;4976949;28;20065;-71
2021/08/12 09:48:34;;;;;;;1.63;0.47;;;;;;;16.17;100.00;99913.38;4979338;28;20498;-71
2021/08/12 09:51:37;;;;;;;1.48;0.28;;;;;;;16.32;100.00;99913.88;4982705;28;20081;-72
2021/08/12 09:54:40;;;;;;;5.80;0.55;;;;;;;16.34;100.00;99905.69;4977601;28;20919;-72
2021/08/12 09:57:54;;;;;;;0.20;0.10;;;;;;;16.44;100.00;99898.50;4970306;28;20061;-71
2021/08/12 10:00:57;;;;;;;0.10;0.10;;;;;;;16.60;100.00;99900.53;4973856;28;20052;-71
2021/08/12 10:04:21;;;;;;;4.13;0.38;;;;;;;16.79;100.00;99899.94;4979166;28;20065;-72
2021/08/12 10:07:45;;;;;;;1.02;0.25;;;;;;;16.88;100.00;99896.84;4968178;28;20657;-72
2021/08/12 10:10:48;;;;;;;1.98;0.30;;;;;;;16.91;100.00;99895.81;4948227;28;20047;-70
2021/08/12 10:13:58;;;;;;;1.45;0.00;;;;;;;17.01;100.00;99895.00;4949983;28;20753;-71
2021/08/12 10:17:03;;;;;;;2.15;0.13;;;;;;;17.16;100.00;99886.22;4970504;28;20100;-72
2021/08/12 10:20:09;;;;;;;0.50;0.15;;;;;;;17.27;100.00;99886.94;4955718;28;21167;-72
2021/08/12 10:23:13;;;;;;;0.20;0.20;;;;;;;17.43;100.00;99885.31;4951793;28;20638;-72
2021/08/12 10:26:18;;;;;;;5.60;0.32;;;;;;;17.58;100.00;99885.75;4954261;28;20116;-71
2021/08/12 10:29:23;;;;;;;1.85;0.65;;;;;;;17.69;100.00;99887.69;4955249;28;20116;-72
2021/08/12 10:32:27;;;;;;;0.10;0.00;;;;;;;17.71;100.00;99866.19;4955899;28;20061;-74
2021/08/12 10:35:33;;;;;;;0.20;0.00;;;;;;;17.86;100.00;99871.44;4955457;28;20149;-75
2021/08/12 10:38:37;;;;;;;0.65;0.17;;;;;;;17.97;100.00;99872.09;4955079;28;20061;-74
2021/08/12 10:41:41;;;;;;;2.22;0.10;;;;;;;18.07;100.00;99887.38;4955090;28;20066;-75
2021/08/12 10:44:45;;;;;;;3.10;0.30;;;;;;;18.12;100.00;99883.75;4949582;28;20138;-72
2021/08/12 10:47:56;;;;;;;7.70;0.85;;;;;;;18.17;100.00;99874.44;4966696;28;20061;-73
2021/08/12 10:51:02;;;;;;;1.02;0.55;;;;;;;18.21;100.00;99876.22;4968524;28;20048;-72
2021/08/12 10:54:15;;;;;;;0.52;0.25;;;;;;;18.37;100.00;99876.03;4967726;28;20077;-72
2021/08/12 10:57:21;;;;;;;0.10;0.10;;;;;;;18.32;100.00;99874.03;4953220;28;20249;-72
2021/08/12 11:00:53;;;;;;;3.85;0.20;;;;;;;18.50;100.00;99866.97;4955645;28;20073;-73
2021/08/12 11:04:01;;;;;;;1.50;0.10;;;;;;;18.51;100.00;99868.50;4953928;28;20097;-71
2021/08/12 11:07:04;;;;;;;0.30;0.13;;;;;;;18.61;100.00;99866.84;4960835;28;20538;-72
2021/08/12 11:10:12;;;;;;;0.20;0.10;;;;;;;18.69;100.00;99864.97;4974650;28;20056;-73
2021/08/12 11:13:32;;;;;;;6.18;0.38;;;;;;;18.77;100.00;99871.53;4982469;28;20064;-73
2021/08/12 11:16:41;;;;;;;0.80;0.20;;;;;;;18.76;100.00;99867.16;5011708;28;20065;-73
2021/08/12 11:19:44;;;;;;;1.00;0.10;;;;;;;18.82;100.00;99853.75;5004189;28;20524;-73
2021/08/12 11:22:47;;;;;;;2.92;0.40;;;;;;;18.85;100.00;99863.97;5012232;28;20140;-74
2021/08/12 11:25:55;;;;;;;1.30;0.17;;;;;;;18.84;100.00;99856.81;4969653;28;20857;-72
2021/08/12 11:28:58;;;;;;;2.83;0.40;;;;;;;18.97;100.00;99847.66;4959512;28;20061;-73
2021/08/12 11:32:08;;;;;;;1.38;0.20;;;;;;;19.02;100.00;99844.75;4964840;28;20594;-73
2021/08/12 11:35:11;;;;;;;0.10;0.10;;;;;;;19.04;100.00;99847.81;4964604;28;20767;-73
2021/08/12 11:38:15;;;;;;;9.05;0.20;;;;;;;18.99;100.00;99856.38;4965634;28;20057;-74
2021/08/12 11:41:20;;;;;;;0.60;0.25;;;;;;;19.05;100.00;99855.00;4948096;28;20057;-73
2021/08/12 11:44:24;;;;;;;0.10;0.00;;;;;;;19.18;100.00;99851.47;4939233;28;20208;-74
2021/08/12 11:47:27;;;;;;;5.70;0.10;;;;;;;19.21;100.00;99851.16;4941027;28;20650;-72
2021/08/12 11:50:30;;;;;;;6.53;0.43;;;;;;;19.27;100.00;99845.44;4941131;28;20046;-74
2021/08/12 11:53:44;;;;;;;1.08;0.20;;;;;;;19.31;100.00;99843.84;4941961;28;20111;-74
2021/08/12 11:56:50;;;;;;;1.83;0.00;;;;;;;19.43;100.00;99847.25;4941695;28;20062;-74
2021/08/12 11:59:53;;;;;;;1.23;0.10;;;;;;;19.54;100.00;99838.63;4942173;28;20120;-74
2021/08/12 12:03:01;;;;;;;4.85;0.10;;;;;;;19.62;100.00;99845.94;4943215;28;20068;-74
2021/08/12 12:06:04;;;;;;;0.00;0.00;;;;;;;19.81;100.00;99847.94;4941863;28;20180;-73
2021/08/12 12:09:24;;;;;;;3.65;0.93;;;;;;;19.92;100.00;99844.94;4942140;28;20610;-74
2021/08/12 12:12:28;;;;;;;0.90;0.10;;;;;;;19.99;100.00;99847.13;4941469;28;20329;-74
2021/08/12 12:15:36;;;;;;;0.22;0.17;;;;;;;20.11;100.00;99846.38;4940658;28;20152;-80
2021/08/12 12:18:42;;;;;;;2.15;0.47;;;;;;;20.06;100.00;99846.47;4945162;28;20060;-75
2021/08/12 12:21:45;;;;;;;1.38;0.20;;;;;;;19.95;100.00;99841.00;4949300;28;20175;-75
2021/08/12 12:24:48;;;;;;;4.68;0.00;;;;;;;19.81;100.00;99831.00;4951604;28;20895;-75
2021/08/12 12:27:54;;;;;;;0.22;0.10;;;;;;;19.99;100.00;99827.34;4953339;28;20061;-75
2021/08/12 12:30:58;;;;;;;1.20;0.10;;;;;;;20.05;100.00;99819.50;4947229;28;20224;-75
2021/08/12 12:34:02;;;;;;;6.20;0.47;;;;;;;20.19;100.00;99806.88;4953146;28;20049;-76
2021/08/12 12:37:05;;;;;;;0.30;0.10;;;;;;;20.14;100.00;99810.59;4953268;28;20756;-75
2021/08/12 12:40:17;;;;;;;1.65;0.00;;;;;;;20.17;100.00;99806.69;4953655;28;20053;-75
2021/08/12 12:43:27;;;;;;;0.35;0.20;;;;;;;20.17;100.00;99809.50;4952021;28;20053;-73
2021/08/12 12:46:31;;;;;;;0.60;0.25;;;;;;;20.05;100.00;99813.84;4958238;28;20334;-75
2021/08/12 12:49:34;;;;;;;1.10;0.10;;;;;;;19.83;100.00;99808.59;4958538;28;20720;-75
2021/08/12 12:52:57;;;;;;;0.77;0.15;;;;;;;19.84;100.00;99815.78;4960271;28;20701;-75
2021/08/12 12:56:03;;;;;;;0.70;0.20;;;;;;;19.74;100.00;99800.53;4951059;28;20515;-74
2021/08/12 12:59:11;;;;;;;1.27;0.40;;;;;;;20.00;100.00;99812.66;4971122;28;20239;-72
2021/08/12 13:02:16;;;;;;;0.75;0.00;;;;;;;19.98;100.00;99811.66;4955350;28;20084;-72
2021/08/12 13:05:19;;;;;;;2.08;0.30;;;;;;;20.22;100.00;99803.03;4952713;28;20211;-72
2021/08/12 13:08:22;;;;;;;0.68;0.20;;;;;;;20.46;100.00;99808.47;4955908;28;20752;-73
2021/08/12 13:11:33;;;;;;;0.10;0.10;;;;;;;20.71;100.00;99809.72;4953347;28;20160;-75
2021/08/12 13:14:36;;;;;;;0.30;0.10;;;;;;;20.89;100.00;99811.66;4961067;28;20056;-76
2021/08/12 13:17:40;;;;;;;1.10;0.20;;;;;;;20.95;100.00;99814.34;4959745;28;20864;-73
2021/08/12 13:20:47;;;;;;;4.22;0.10;;;;;;;21.06;100.00;99800.75;4951259;28;20727;-72
2021/08/12 13:23:55;;;;;;;0.35;0.10;;;;;;;21.21;100.00;99800.13;4959254;28;20718;-73
2021/08/12 13:26:59;;;;;;;0.75;0.10;;;;;;;21.25;100.00;99792.06;4961454;28;20615;-75
2021/08/12 13:30:04;;;;;;;1.38;0.13;;;;;;;21.25;100.00;99782.78;4956445;28;20097;-74
2021/08/12 13:33:27;;;;;;;1.00;0.20;;;;;;;21.26;100.00;99784.31;4957137;28;20344;-73
2021/08/12 13:36:31;;;;;;;0.90;0.10;;;;;;;21.23;100.00;99776.91;4954020;28;21195;-74
2021/08/12 13:39:34;;;;;;;0.13;0.10;;;;;;;21.10;100.00;99774.91;4961639;28;20076;-76
2021/08/12 13:42:38;;;;;;;0.20;0.10;;;;;;;21.15;100.00;99776.84;4960962;28;20073;-76
2021/08/12 13:45:42;;;;;;;1.20;0.10;;;;;;;21.21;100.00;99779.53;4971696;28;20950;-76
2021/08/12 13:48:45;;;;;;;0.77;0.10;;;;;;;21.22;100.00;99772.56;4959624;28;20246;-74
2021/08/12 13:51:50;;;;;;;0.50;0.10;;;;;;;21.14;100.00;99778.91;4969655;28;20066;-72
2021/08/12 13:54:53;;;;;;;3.30;0.00;;;;;;;21.03;100.00;99782.00;4960786;28;20114;-72
2021/08/12 13:57:57;;;;;;;1.38;0.10;;;;;;;21.13;100.00;99780.25;4963069;28;20203;-71
2021/08/12 14:01:00;;;;;;;0.57;0.10;;;;;;;21.20;100.00;99769.53;4959890;28;20080;-71
2021/08/12 14:04:04;;;;;;;1.10;0.20;;;;;;;21.38;100.00;99782.72;4963353;28;20076;-72
2021/08/12 14:07:07;;;;;;;2.50;0.22;;;;;;;21.42;100.00;99783.91;4961307;28;20041;-72
2021/08/12 14:10:11;;;;;;;0.30;0.10;;;;;;;21.35;100.00;99784.63;4962211;28;20052;-73
2021/08/12 14:13:14;;;;;;;1.27;0.00;;;;;;;21.30;100.00;99781.91;4959671;28;20069;-73
2021/08/12 14:16:18;;;;;;;3.33;0.25;;;;;;;21.38;100.00;99768.56;4960659;28;20559;-73
2021/08/12 14:19:22;;;;;;;0.77;0.32;;;;;;;21.39;100.00;99784.25;4959740;28;20704;-72
2021/08/12 14:22:26;;;;;;;2.17;0.28;;;;;;;21.35;100.00;99776.13;4960557;28;20057;-72